SPZO Airport Information

Runway Information
Runway 10 Length 11146 ft width 148 ft
Elevation 10860 ft Threshold 0 ft Heading 96
Runway 28 Length 11146 ft Width 148 ft
Elevation 10702 ft Threshold 0 ft Heading 276
Airport Frequencies
Type APP Name CUSCO APP Frequency 120.6 MHZ
Type ATIS Name ATIS Frequency 127 MHZ
Type GND Name GND Frequency 121.9 MHZ
Type TWR Name CUSCO TWR Frequency 118.1 MHZ
Airport Navaids
Type VOR-DME Name Urcos Frequency 115600 KHZ
Type VOR-DME Name Cusco Frequency 114900 KHZ
Airport Weather Information & NOTAM
ADDS - METARS form results

(2128 UTC 09 December 2018)
Data provider http://aviationweather.gov/metar/data/
 
METAR text: SPZO 092100Z 02014KT 320V050 9999 FEW050 21/M05 Q1030 NOSIG RMK BIRD HAZARD RWY 28 PP000
Conditions at: SPZO (CUZCO/VELAZCO AS, PE) observed 2100 UTC 09 December 2018
Temperature: 21.0°C (70°F)
Dewpoint: -5.0°C (23°F) [RH = 17%]
Pressure (altimeter): 30.41 inches Hg (1030.0 mb)
Winds: from the NNE (20 degrees) at 16 MPH (14 knots; 7.2 m/s)
Visibility: 6 or more miles (10+ km)
Ceiling: at least 12,000 feet AGL
Clouds: few clouds at 5000 feet AGL
Weather: no significant weather observed at this time

METAR text: SPZO 092030Z 02014KT 340V070 9999 FEW060 21/M05 Q1030 NOSIG RMK BIRD HAZARD RWY 28
Conditions at: SPZO (CUZCO/VELAZCO AS, PE) observed 2030 UTC 09 December 2018
Temperature: 21.0°C (70°F)
Dewpoint: -5.0°C (23°F) [RH = 17%]
Pressure (altimeter): 30.41 inches Hg (1030.0 mb)
Winds: from the NNE (20 degrees) at 16 MPH (14 knots; 7.2 m/s)
Visibility: 6 or more miles (10+ km)
Ceiling: at least 12,000 feet AGL
Clouds: few clouds at 6000 feet AGL
Weather: no significant weather observed at this time

Forecast for: SPZO (CUZCO/VELAZCO AS, PE)
Text: TAF SPZO 091700Z 0918/1018 36012KT 9999 FEW060 TX25/0919Z TN05/1011Z
Forecast period: 1800 to 2300 UTC 09 December 2018
Forecast type: FROM: standard forecast or significant change
Winds: from the N (360 degrees) at 14 MPH (12 knots; 6.2 m/s)
Visibility: 6 or more miles 10+ km)
Ceiling: at least 12,000 feet AGL
Clouds: few clouds at 6000 feet AGL
Weather: no significant weather forecast for this period
Text: TEMPO 0918/0922 36015G25KT
Forecast period: 1800 to 2200 UTC 09 December 2018
Forecast type: TEMPORARY: The following changes expected for less than half the time period
Winds: from the N (360 degrees) at 17 MPH (15 knots; 7.7 m/s)
gusting to 29 MPH (25 knots; 12.9 m/s)
Visibility: missing
Ceiling: unknown
Clouds: missing
Weather: no significant weather forecast for this period
Text: BECMG 0923/1002 00000KT
Forecast period: 2300 UTC 09 December 2018 to 1800 UTC 10 December 2018
Forecast type: BECOMING: Conditions expected to become as follows by 0200 UTC 10 December 2018
Winds: calm
Visibility: 6 or more miles 10+ km)
Ceiling: at least 12,000 feet AGL
Clouds: few clouds at 6000 feet AGL
Weather: no significant weather forecast for this period